createdAt,value
2022-08-23T00:03:19.723Z,15.1
2022-08-23T00:09:22.986Z,15.1
2022-08-23T00:15:01.950Z,15.1
2022-08-23T00:20:49.031Z,15.2
2022-08-23T00:26:25.522Z,15.3
2022-08-23T00:32:10.396Z,15.3
2022-08-23T00:37:51.036Z,15.3
2022-08-23T00:43:51.893Z,15.3
2022-08-23T00:49:13.612Z,15.4
2022-08-23T00:55:00.892Z,15.4
2022-08-23T01:00:22.126Z,15.4
2022-08-23T01:06:05.589Z,15.5
2022-08-23T01:11:33.205Z,15.5
2022-08-23T01:17:02.812Z,15.6
2022-08-23T01:22:32.945Z,15.6
2022-08-23T01:29:05.147Z,15.6
2022-08-23T01:34:44.638Z,15.8
2022-08-23T01:40:31.239Z,15.8
2022-08-23T01:46:13.622Z,15.9
2022-08-23T01:51:49.242Z,16
2022-08-23T01:57:29.159Z,16.1
2022-08-23T02:02:56.089Z,16.3
2022-08-23T02:08:36.223Z,16.3
2022-08-23T02:14:22.192Z,16.3
2022-08-23T02:20:14.107Z,16.3
2022-08-23T02:25:50.229Z,16.3
2022-08-23T02:31:36.261Z,16.3
2022-08-23T02:37:22.252Z,16.3
2022-08-23T02:43:02.057Z,16.2
2022-08-23T02:48:12.635Z,16.2
2022-08-23T02:53:33.229Z,16.1
2022-08-23T02:59:19.792Z,16.1
2022-08-23T03:04:57.296Z,16.1
2022-08-23T03:10:56.066Z,16.1
2022-08-23T03:16:34.346Z,16.2
2022-08-23T03:22:10.909Z,16.2
2022-08-23T03:27:38.481Z,16.1
2022-08-23T03:33:39.326Z,16.1
2022-08-23T03:39:26.596Z,16.1
2022-08-23T03:45:13.258Z,16.1
2022-08-23T03:50:50.069Z,16.1
2022-08-23T03:56:32.730Z,16.1
2022-08-23T04:02:08.926Z,16.1
2022-08-23T04:07:45.169Z,16.1
2022-08-23T04:13:45.781Z,16.2
2022-08-23T04:19:25.628Z,16.2
2022-08-23T04:25:05.073Z,16.3
2022-08-23T04:31:21.041Z,16.4
2022-08-23T04:37:29.235Z,16.5
2022-08-23T04:43:17.508Z,16.6
2022-08-23T04:48:55.030Z,16.8
2022-08-23T04:54:39.278Z,16.9
2022-08-23T05:00:17.732Z,17.1
2022-08-23T05:05:56.926Z,17.4
2022-08-23T05:11:43.143Z,17.7
2022-08-23T05:17:25.744Z,18.1
2022-08-23T05:23:09.556Z,18.6
2022-08-23T05:29:03.734Z,19.3
2022-08-23T05:34:57.511Z,20.1
2022-08-23T05:40:48.835Z,21.7
2022-08-23T05:46:53.798Z,23.4
2022-08-23T05:52:47.848Z,25.7
2022-08-23T05:58:30.847Z,28.7
2022-08-23T06:04:19.971Z,31.6
2022-08-23T06:10:04.677Z,33.4
2022-08-23T06:15:47.246Z,34.8
2022-08-23T06:21:35.406Z,37.8
2022-08-23T06:26:57.902Z,39.9
2022-08-23T06:32:55.618Z,43.5
2022-08-23T06:39:08.877Z,51.5
2022-08-23T06:45:14.473Z,39.2
2022-08-23T06:51:23.995Z,43.6
2022-08-23T06:57:14.634Z,48.3
2022-08-23T07:03:27.831Z,41.1
2022-08-23T07:09:28.921Z,42
2022-08-23T07:15:10.434Z,39.2
2022-08-23T07:20:57.666Z,45.1
2022-08-23T07:26:38.754Z,47.3
2022-08-23T07:32:23.644Z,45.8
2022-08-23T07:38:06.185Z,49.1
2022-08-23T07:44:08.572Z,49.8
2022-08-23T07:50:03.361Z,44.6
2022-08-23T07:56:03.177Z,43.3
2022-08-23T08:01:40.380Z,43.4
2022-08-23T08:07:47.373Z,44.5
2022-08-23T08:13:24.179Z,42.8
2022-08-23T08:19:01.258Z,42.9
2022-08-23T08:24:28.405Z,43.3
2022-08-23T08:29:44.515Z,43.2
2022-08-23T08:35:09.280Z,42.5
2022-08-23T08:41:02.305Z,43.4
2022-08-23T08:46:49.267Z,46.9
2022-08-23T08:52:32.005Z,48.5
2022-08-23T08:58:19.344Z,43.4
2022-08-23T09:04:20.305Z,43.1
2022-08-23T09:10:03.727Z,43.3
2022-08-23T09:15:48.106Z,43.8
2022-08-23T09:21:28.300Z,45.3
2022-08-23T09:27:15.373Z,46.8
2022-08-23T09:32:54.938Z,52.3
2022-08-23T09:38:41.661Z,58.6
2022-08-23T09:44:08.199Z,59.7
2022-08-23T09:49:45.398Z,60.9
2022-08-23T09:55:34.473Z,59.8
2022-08-23T10:01:12.658Z,58.3
2022-08-23T10:07:05.036Z,54.9
2022-08-23T10:12:34.306Z,56.7
2022-08-23T10:18:13.189Z,55.3
2022-08-23T10:23:39.524Z,55.6
2022-08-23T10:29:19.534Z,55
2022-08-23T10:34:50.341Z,59.9
2022-08-23T10:40:20.564Z,58.4
2022-08-23T10:46:00.494Z,58.7
2022-08-23T10:51:48.712Z,62.6
2022-08-23T10:57:38.946Z,57.6
2022-08-23T11:03:20.401Z,56.8
2022-08-23T11:09:03.883Z,56.9
2022-08-23T11:14:57.662Z,58.9
2022-08-23T11:20:34.939Z,59.9
2022-08-23T11:26:12.546Z,59.5
2022-08-23T11:31:58.360Z,59.6
2022-08-23T11:37:44.736Z,58.9
2022-08-23T11:43:11.891Z,59.3
2022-08-23T11:48:50.002Z,59.8
2022-08-23T11:54:28.817Z,60.4
2022-08-23T12:00:00.420Z,60.9
2022-08-23T12:05:27.093Z,60.7
2022-08-23T12:11:11.945Z,60.1
2022-08-23T12:17:00.750Z,60.3
2022-08-23T12:22:52.544Z,60.4
2022-08-23T12:28:38.685Z,59.9
2022-08-23T12:40:01.822Z,57.2
2022-08-23T12:45:34.898Z,55.3
2022-08-23T12:51:06.793Z,56.1
2022-08-23T12:56:48.571Z,58.1
2022-08-23T13:02:55.358Z,59.5
2022-08-23T13:08:27.532Z,60.7
2022-08-23T13:14:04.290Z,60.8
2022-08-23T13:19:27.231Z,60.9
2022-08-23T13:25:11.643Z,60.4
2022-08-23T13:30:46.704Z,59.8
2022-08-23T13:36:47.089Z,58.4
2022-08-23T13:42:29.333Z,56.6
2022-08-23T13:48:26.301Z,54.5
2022-08-23T13:55:09.184Z,51.7
2022-08-23T14:00:55.126Z,48.4
2022-08-23T14:06:34.768Z,45.1
2022-08-23T14:12:13.424Z,41.3
2022-08-23T14:26:04.027Z,36.2
2022-08-23T14:31:50.666Z,34.3
2022-08-23T14:38:28.077Z,32.4
2022-08-23T14:44:09.587Z,30.6
2022-08-23T14:49:54.110Z,29.3
2022-08-23T14:55:32.931Z,28.1
2022-08-23T15:01:31.464Z,27
2022-08-23T15:07:18.462Z,26.1
2022-08-23T15:15:07.394Z,25.3
2022-08-23T15:20:46.784Z,24.8
2022-08-23T15:26:44.331Z,24.5
2022-08-23T15:32:39.079Z,24.3
2022-08-23T15:38:34.683Z,24.1
2022-08-23T15:44:08.923Z,24.1
2022-08-23T15:49:36.355Z,24.1
2022-08-23T15:55:02.135Z,24.2
2022-08-23T16:00:43.149Z,24.3
2022-08-23T16:06:54.366Z,24.5
2022-08-23T16:12:34.619Z,24.6
2022-08-23T16:18:12.133Z,24.7
2022-08-23T16:23:53.167Z,24.8
2022-08-23T16:29:42.808Z,24.8
2022-08-23T16:35:36.457Z,24.8
2022-08-23T16:41:20.511Z,24.8
2022-08-23T16:46:57.923Z,24.6
2022-08-23T16:52:41.274Z,24.4
2022-08-23T16:58:34.111Z,24.1
2022-08-23T17:04:13.648Z,23.7
2022-08-23T17:09:58.391Z,23.4
2022-08-23T17:15:41.699Z,23
2022-08-23T17:21:19.300Z,22.6
2022-08-23T17:26:58.878Z,22.3
2022-08-23T17:32:48.539Z,21.9
2022-08-23T17:38:32.476Z,21.6
2022-08-23T17:44:02.465Z,21.3
2022-08-23T17:49:25.646Z,21.1
2022-08-23T17:54:52.006Z,20.8
2022-08-23T18:00:58.216Z,20.5
2022-08-23T18:06:50.663Z,20.3
2022-08-23T18:12:31.915Z,20.1
2022-08-23T18:18:14.840Z,19.8
2022-08-23T18:23:52.659Z,19.6
2022-08-23T18:29:39.410Z,19.4
2022-08-23T18:35:31.142Z,19.3
2022-08-23T18:41:21.440Z,19.1
2022-08-23T18:47:07.579Z,19.1
2022-08-23T18:53:04.897Z,18.9
2022-08-23T18:58:45.785Z,18.9
2022-08-23T19:04:24.939Z,18.8
2022-08-23T19:15:31.208Z,18.6
2022-08-23T19:21:09.328Z,18.4
2022-08-23T19:26:31.310Z,18.3
2022-08-23T19:31:59.254Z,18.1
2022-08-23T19:38:14.001Z,17.9
2022-08-23T19:43:41.561Z,17.8
2022-08-23T19:49:29.202Z,17.7
2022-08-23T19:55:21.760Z,17.5
2022-08-23T20:00:44.901Z,17.4
2022-08-23T20:06:07.108Z,17.3
2022-08-23T20:11:31.271Z,17.1
2022-08-23T20:22:35.832Z,16.9
2022-08-23T20:28:50.463Z,16.9
2022-08-23T20:34:21.990Z,16.9
2022-08-23T20:39:45.557Z,16.9
2022-08-23T21:01:30.405Z,16.9
2022-08-23T21:07:13.870Z,16.9
2022-08-23T21:12:46.953Z,16.9
2022-08-23T21:18:38.217Z,16.8
2022-08-23T21:24:01.663Z,16.8
2022-08-23T21:29:48.780Z,16.7
2022-08-23T21:35:26.129Z,16.7
2022-08-23T21:41:04.237Z,16.7
2022-08-23T21:46:33.380Z,16.7
2022-08-23T21:51:57.003Z,16.7
2022-08-23T21:57:55.042Z,16.8
2022-08-23T22:03:33.097Z,16.8
2022-08-23T22:09:18.700Z,16.8
2022-08-23T22:15:06.542Z,16.9
2022-08-23T22:20:43.641Z,16.9
2022-08-23T22:31:17.827Z,17.1
2022-08-23T22:36:39.610Z,17.1
2022-08-23T22:42:34.540Z,17.2
2022-08-23T22:48:21.056Z,17.2
2022-08-23T22:54:01.661Z,17.2
2022-08-23T22:59:49.348Z,17.3
2022-08-23T23:05:50.863Z,17.2
2022-08-23T23:11:27.681Z,17.1
2022-08-23T23:16:34.745Z,17.1
2022-08-23T23:22:11.990Z,16.9
2022-08-23T23:27:52.567Z,16.9
2022-08-23T23:33:33.605Z,16.8
2022-08-23T23:39:17.722Z,16.6
2022-08-23T23:45:05.353Z,16.5
2022-08-23T23:50:45.049Z,16.4
2022-08-23T23:56:09.919Z,16.3
